createdAt,value
2019-03-23T00:02:04.796Z,35.47
2019-03-23T00:04:33.338Z,32.70
2019-03-23T00:07:01.895Z,33.80
2019-03-23T00:09:30.486Z,34.67
2019-03-23T00:11:59.170Z,40.83
2019-03-23T00:14:27.722Z,42.10
2019-03-23T00:16:56.291Z,40.10
2019-03-23T00:19:24.842Z,41.07
2019-03-23T00:21:53.455Z,45.93
2019-03-23T00:24:22.105Z,46.33
2019-03-23T00:26:50.578Z,46.83
2019-03-23T00:29:19.127Z,46.40
2019-03-23T00:32:07.197Z,44.87
2019-03-23T00:34:35.737Z,45.07
2019-03-23T00:37:04.278Z,42.90
2019-03-23T00:39:32.854Z,46.83
2019-03-23T00:42:01.403Z,44.57
2019-03-23T00:44:29.950Z,49.63
2019-03-23T00:46:58.598Z,46.40
2019-03-23T00:49:27.146Z,48.77
2019-03-23T00:51:55.693Z,44.67
2019-03-23T00:54:24.275Z,43.73
2019-03-23T00:56:52.821Z,43.87
2019-03-23T00:59:21.299Z,44.30
2019-03-23T01:01:49.769Z,46.77
2019-03-23T01:04:18.238Z,42.20
2019-03-23T01:06:52.018Z,42.33
2019-03-23T01:09:17.025Z,39.63
2019-03-23T01:11:45.577Z,41.07
2019-03-23T01:14:14.153Z,46.77
2019-03-23T01:16:42.625Z,48.67
2019-03-23T01:19:11.173Z,46.20
2019-03-23T01:21:39.741Z,42.87
2019-03-23T01:24:08.368Z,40.33
2019-03-23T01:26:36.901Z,39.93
2019-03-23T01:29:05.426Z,38.63
2019-03-23T01:31:34.050Z,41.87
2019-03-23T01:34:02.658Z,42.50
2019-03-23T01:36:31.407Z,46.60
2019-03-23T01:39:00.021Z,47.40
2019-03-23T01:41:28.489Z,52.93
2019-03-23T01:43:56.996Z,57.53
2019-03-23T01:46:25.605Z,56.13
2019-03-23T01:48:54.152Z,52.37
2019-03-23T01:51:22.653Z,57.00
2019-03-23T01:53:51.190Z,53.60
2019-03-23T01:56:19.666Z,48.00
2019-03-23T01:58:48.333Z,47.40
2019-03-23T02:01:16.944Z,48.60
2019-03-23T02:03:45.565Z,46.87
2019-03-23T02:06:14.140Z,47.23
2019-03-23T02:08:42.619Z,45.43
2019-03-23T02:11:12.301Z,44.40
2019-03-23T02:13:40.943Z,45.97
2019-03-23T02:16:09.414Z,44.00
2019-03-23T02:18:37.966Z,46.60
2019-03-23T02:21:06.705Z,48.73
2019-03-23T02:23:35.264Z,44.87
2019-03-23T02:26:04.014Z,47.03
2019-03-23T02:28:32.545Z,46.67
2019-03-23T02:31:01.169Z,48.57
2019-03-23T02:33:29.715Z,47.57
2019-03-23T02:35:59.119Z,47.87
2019-03-23T02:38:27.594Z,44.97
2019-03-23T02:40:56.213Z,46.00
2019-03-23T02:43:24.789Z,48.43
2019-03-23T02:45:53.336Z,48.30
2019-03-23T02:48:21.885Z,49.03
2019-03-23T02:50:50.466Z,48.77
2019-03-23T02:53:18.998Z,50.33
2019-03-23T02:55:47.554Z,50.40
2019-03-23T02:58:16.193Z,51.27
2019-03-23T03:00:44.660Z,51.03
2019-03-23T03:03:13.215Z,52.40
2019-03-23T03:05:41.792Z,52.03
2019-03-23T03:08:10.339Z,50.13
2019-03-23T03:10:39.450Z,50.43
2019-03-23T03:13:08.271Z,49.33
2019-03-23T03:15:36.993Z,48.47
2019-03-23T03:18:07.074Z,48.00
2019-03-23T03:20:35.629Z,47.00
2019-03-23T03:23:04.421Z,50.23
2019-03-23T03:25:32.994Z,46.33
2019-03-23T03:28:01.538Z,47.17
2019-03-23T03:30:30.157Z,48.87
2019-03-23T03:32:58.834Z,50.83
2019-03-23T03:35:27.446Z,49.90
2019-03-23T03:37:57.254Z,51.57
2019-03-23T03:40:26.200Z,48.57
2019-03-23T03:42:54.816Z,50.37
2019-03-23T03:45:27.775Z,52.83
2019-03-23T03:47:56.485Z,60.17
2019-03-23T03:50:25.106Z,58.90
2019-03-23T03:52:53.682Z,57.90
2019-03-23T03:55:22.907Z,54.27
2019-03-23T03:57:52.635Z,53.93
2019-03-23T04:00:22.203Z,54.67
2019-03-23T04:02:50.796Z,56.07
2019-03-23T04:05:19.426Z,55.73
2019-03-23T04:07:49.546Z,57.53
2019-03-23T04:10:18.114Z,62.10
2019-03-23T04:12:46.731Z,58.10
2019-03-23T04:15:15.491Z,56.47
2019-03-23T04:17:44.094Z,55.53
2019-03-23T04:20:12.999Z,55.93
2019-03-23T04:22:41.599Z,57.30
2019-03-23T04:25:10.952Z,56.80
2019-03-23T04:27:39.641Z,58.80
2019-03-23T04:30:10.293Z,58.57
2019-03-23T04:32:38.947Z,58.37
2019-03-23T04:35:08.298Z,58.80
2019-03-23T04:37:36.863Z,59.27
2019-03-23T04:40:10.394Z,56.80
2019-03-23T04:42:39.037Z,58.83
2019-03-23T04:45:09.748Z,55.50
2019-03-23T04:47:38.298Z,54.50
2019-03-23T04:50:09.421Z,56.83
2019-03-23T04:52:38.040Z,58.03
2019-03-23T04:55:13.306Z,65.20
2019-03-23T04:57:41.995Z,59.20
2019-03-23T05:00:16.008Z,54.53
2019-03-23T05:02:44.596Z,54.90
2019-03-23T05:05:13.279Z,57.90
2019-03-23T05:07:41.897Z,56.23
2019-03-23T05:10:12.024Z,57.90
2019-03-23T05:12:40.736Z,57.70
2019-03-23T05:15:09.421Z,54.37
2019-03-23T05:17:37.978Z,57.20
2019-03-23T05:20:08.793Z,60.00
2019-03-23T05:22:37.336Z,56.37
2019-03-23T05:25:06.418Z,55.30
2019-03-23T05:27:35.089Z,53.60
2019-03-23T05:30:05.506Z,52.13
2019-03-23T05:32:35.047Z,52.37
2019-03-23T05:35:04.873Z,55.50
2019-03-23T05:37:34.687Z,53.63
2019-03-23T05:40:03.994Z,55.37
2019-03-23T05:42:32.561Z,57.27
2019-03-23T05:45:01.030Z,55.13
2019-03-23T05:47:29.581Z,57.37
2019-03-23T05:49:58.215Z,55.60
2019-03-23T05:52:26.829Z,57.07
2019-03-23T05:54:55.303Z,56.53
2019-03-23T05:57:23.921Z,56.40
2019-03-23T05:59:52.470Z,58.30
2019-03-23T06:02:21.094Z,59.23
2019-03-23T06:04:49.648Z,57.17
2019-03-23T06:07:18.365Z,57.40
2019-03-23T06:09:46.841Z,53.07
2019-03-23T06:12:17.559Z,56.73
2019-03-23T06:14:45.611Z,52.30
2019-03-23T06:17:14.161Z,54.80
2019-03-23T06:19:42.635Z,55.90
2019-03-23T06:22:11.213Z,54.60
2019-03-23T06:24:39.744Z,52.40
2019-03-23T06:27:08.213Z,50.93
2019-03-23T06:29:36.717Z,53.17
2019-03-23T06:32:05.336Z,53.93
2019-03-23T06:34:33.887Z,55.23
2019-03-23T06:37:02.458Z,50.77
2019-03-23T06:39:31.012Z,50.73
2019-03-23T06:41:59.618Z,51.47
2019-03-23T06:44:28.124Z,51.60
2019-03-23T06:46:56.602Z,49.30
2019-03-23T06:49:25.148Z,49.87
2019-03-23T06:51:53.649Z,47.27
2019-03-23T06:54:22.266Z,47.07
2019-03-23T06:56:50.814Z,51.23
2019-03-23T06:59:19.360Z,47.20
2019-03-23T07:01:47.911Z,46.93
2019-03-23T07:04:16.564Z,44.10
2019-03-23T07:06:45.178Z,45.20
2019-03-23T07:09:16.436Z,46.50
2019-03-23T07:11:43.966Z,46.07
2019-03-23T07:14:12.514Z,44.20
2019-03-23T07:16:41.052Z,45.77
2019-03-23T07:19:09.967Z,44.33
2019-03-23T07:21:38.573Z,45.17
2019-03-23T07:24:07.126Z,47.17
2019-03-23T07:26:35.708Z,45.90
2019-03-23T07:29:04.390Z,46.93
2019-03-23T07:31:32.912Z,46.43
2019-03-23T07:34:01.431Z,46.20
2019-03-23T07:36:29.990Z,46.57
2019-03-23T07:38:58.612Z,46.30
2019-03-23T07:41:27.155Z,46.27
2019-03-23T07:43:55.739Z,45.27
2019-03-23T07:46:24.354Z,46.30
2019-03-23T07:48:52.896Z,47.37
2019-03-23T07:51:21.468Z,47.33
2019-03-23T07:53:50.021Z,46.50
2019-03-23T07:56:18.625Z,47.10
2019-03-23T07:58:47.209Z,47.80
2019-03-23T08:01:15.758Z,45.97
2019-03-23T08:03:44.313Z,46.10
2019-03-23T08:06:12.961Z,49.00
2019-03-23T08:08:41.507Z,49.30
2019-03-23T08:11:10.058Z,47.47
2019-03-23T08:13:38.713Z,46.80
2019-03-23T08:16:07.259Z,48.00
2019-03-23T08:18:35.807Z,48.53
2019-03-23T08:21:04.473Z,50.03
2019-03-23T08:23:33.016Z,49.20
2019-03-23T08:26:01.636Z,48.13
2019-03-23T08:28:32.395Z,43.87
2019-03-23T08:31:00.490Z,44.60
2019-03-23T08:33:29.044Z,45.73
2019-03-23T08:35:57.699Z,45.47
2019-03-23T08:38:26.340Z,46.73
2019-03-23T08:40:56.510Z,44.67
2019-03-23T08:43:25.081Z,44.43
2019-03-23T08:45:53.563Z,45.00
2019-03-23T08:48:22.109Z,47.03
2019-03-23T08:50:50.609Z,46.97
2019-03-23T08:53:19.161Z,47.53
2019-03-23T08:55:47.778Z,46.13
2019-03-23T08:58:16.287Z,48.80
2019-03-23T09:00:44.840Z,48.00
2019-03-23T09:03:13.395Z,44.57
2019-03-23T09:05:42.004Z,42.80
2019-03-23T09:08:10.548Z,41.83
2019-03-23T09:10:39.104Z,43.63
2019-03-23T09:13:07.665Z,47.50
2019-03-23T09:15:36.275Z,44.47
2019-03-23T09:18:05.050Z,43.20
2019-03-23T09:20:33.604Z,45.17
2019-03-23T09:23:02.230Z,42.77
2019-03-23T09:25:30.868Z,42.60
2019-03-23T09:27:59.422Z,42.10
2019-03-23T09:30:28.029Z,41.77
2019-03-23T09:32:57.067Z,40.67
2019-03-23T09:35:25.581Z,41.97
2019-03-23T09:37:54.056Z,39.83
2019-03-23T09:40:22.577Z,43.03
2019-03-23T09:42:52.120Z,41.00
2019-03-23T09:45:20.660Z,41.10
2019-03-23T09:47:49.310Z,42.77
2019-03-23T09:50:17.862Z,47.83
2019-03-23T09:52:46.402Z,41.83
2019-03-23T09:55:14.913Z,42.50
2019-03-23T09:57:43.457Z,41.80
2019-03-23T10:00:12.862Z,42.93
2019-03-23T10:02:41.526Z,43.27
2019-03-23T10:05:10.211Z,44.33
2019-03-23T10:07:38.762Z,42.63
2019-03-23T10:10:07.957Z,40.80
2019-03-23T10:12:36.602Z,40.67
2019-03-23T10:15:07.695Z,40.47
2019-03-23T10:17:36.246Z,41.37
2019-03-23T10:20:06.963Z,42.50
2019-03-23T10:22:35.573Z,40.80
2019-03-23T10:25:05.786Z,40.40
2019-03-23T10:27:34.438Z,42.77
2019-03-23T10:30:03.824Z,40.87
2019-03-23T10:32:32.384Z,39.93
2019-03-23T10:35:01.099Z,40.00
2019-03-23T10:37:29.709Z,40.63
2019-03-23T10:39:58.254Z,40.07
2019-03-23T10:42:26.785Z,40.73
2019-03-23T10:44:55.333Z,38.23
2019-03-23T10:47:23.906Z,38.97
2019-03-23T10:49:52.529Z,37.47
2019-03-23T10:52:21.149Z,37.63
2019-03-23T10:54:49.705Z,38.63
2019-03-23T10:57:18.351Z,36.87
2019-03-23T10:59:46.903Z,36.13
2019-03-23T11:02:15.384Z,37.37
2019-03-23T11:04:43.946Z,37.77
2019-03-23T11:07:12.565Z,38.33
2019-03-23T11:09:42.114Z,37.50
2019-03-23T11:12:10.662Z,36.93
2019-03-23T11:14:39.270Z,38.10
2019-03-23T11:17:07.851Z,38.43
2019-03-23T11:19:36.406Z,38.37
2019-03-23T11:22:05.597Z,41.27
2019-03-23T11:24:34.111Z,40.37
2019-03-23T11:27:02.736Z,38.43
2019-03-23T11:29:31.280Z,38.13
2019-03-23T11:31:59.865Z,40.33
2019-03-23T11:34:28.479Z,38.10
2019-03-23T11:36:57.104Z,38.87
2019-03-23T11:39:25.692Z,39.77
2019-03-23T11:41:54.307Z,39.80
2019-03-23T11:44:22.855Z,39.20
2019-03-23T11:46:51.428Z,39.33
2019-03-23T11:49:19.911Z,38.67
2019-03-23T11:51:48.969Z,40.90
2019-03-23T11:54:17.521Z,37.98
2019-03-23T11:56:46.233Z,36.75
2019-03-23T11:59:14.874Z,37.73
2019-03-23T12:01:51.533Z,35.23
2019-03-23T12:04:13.685Z,34.73
2019-03-23T12:06:42.162Z,37.43
2019-03-23T12:09:10.710Z,38.60
2019-03-23T12:11:39.272Z,37.73
2019-03-23T12:14:07.953Z,38.33
2019-03-23T12:16:36.602Z,37.97
2019-03-23T12:19:05.151Z,36.53
2019-03-23T12:21:33.635Z,33.67
2019-03-23T12:24:02.228Z,32.90
2019-03-23T12:26:30.829Z,35.20
2019-03-23T12:28:59.448Z,36.05
2019-03-23T12:31:28.030Z,35.92
2019-03-23T12:33:56.578Z,34.05
2019-03-23T12:36:25.125Z,34.92
2019-03-23T12:38:53.625Z,35.33
2019-03-23T12:41:23.306Z,35.43
2019-03-23T12:43:55.168Z,34.30
2019-03-23T12:46:23.739Z,35.73
2019-03-23T12:48:52.286Z,34.65
2019-03-23T12:51:20.797Z,32.88
2019-03-23T12:53:49.418Z,33.83
2019-03-23T12:56:18.031Z,32.25
2019-03-23T12:58:46.606Z,28.98
2019-03-23T13:01:15.158Z,30.10
2019-03-23T13:03:43.706Z,29.57
2019-03-23T13:06:12.284Z,29.37
2019-03-23T13:08:40.829Z,26.50
2019-03-23T13:11:09.379Z,24.43
2019-03-23T13:13:37.962Z,20.17
2019-03-23T13:16:06.509Z,16.90
2019-03-23T13:18:34.980Z,15.13
2019-03-23T13:21:03.565Z,18.75
2019-03-23T13:23:32.170Z,18.45
2019-03-23T13:26:00.722Z,17.35
2019-03-23T13:28:29.277Z,17.85
2019-03-23T13:30:57.893Z,18.45
2019-03-23T13:33:26.464Z,16.77
2019-03-23T13:35:55.014Z,16.80
2019-03-23T13:38:23.573Z,16.80
2019-03-23T13:40:52.142Z,17.85
2019-03-23T13:43:20.693Z,18.25
2019-03-23T13:45:49.821Z,17.45
2019-03-23T13:48:20.041Z,17.60
2019-03-23T13:50:48.597Z,18.20
2019-03-23T13:53:17.143Z,18.85
2019-03-23T13:55:45.794Z,16.67
2019-03-23T13:58:15.081Z,16.02
2019-03-23T14:00:43.796Z,16.80
2019-03-23T14:03:12.614Z,16.17
2019-03-23T14:05:41.229Z,15.70
2019-03-23T14:08:09.925Z,15.88
2019-03-23T14:10:38.642Z,14.47
2019-03-23T14:13:07.266Z,15.83
2019-03-23T14:15:35.949Z,14.30
2019-03-23T14:18:04.693Z,13.53
2019-03-23T14:20:33.305Z,13.93
2019-03-23T14:23:02.896Z,11.85
2019-03-23T14:25:31.854Z,12.23
2019-03-23T14:28:00.413Z,13.40
2019-03-23T14:30:28.954Z,13.88
2019-03-23T14:32:57.540Z,14.63
2019-03-23T14:35:26.153Z,18.15
2019-03-23T14:37:54.705Z,13.90
2019-03-23T14:40:23.285Z,11.70
2019-03-23T14:42:51.959Z,10.45
2019-03-23T14:45:20.510Z,10.82
2019-03-23T14:47:49.891Z,9.08
2019-03-23T14:50:18.504Z,9.93
2019-03-23T14:52:47.052Z,9.40
2019-03-23T14:55:15.742Z,8.93
2019-03-23T14:57:44.210Z,7.58
2019-03-23T15:00:13.012Z,6.40
2019-03-23T15:02:41.587Z,6.42
2019-03-23T15:05:10.341Z,6.55
2019-03-23T15:07:38.895Z,6.87
2019-03-23T15:10:09.248Z,7.05
2019-03-23T15:12:37.798Z,8.03
2019-03-23T15:15:07.103Z,7.67
2019-03-23T15:17:35.645Z,8.95
2019-03-23T15:20:05.556Z,8.20
2019-03-23T15:22:34.183Z,9.73
2019-03-23T15:25:02.825Z,8.98
2019-03-23T15:27:31.377Z,9.18
2019-03-23T15:29:59.961Z,11.45
2019-03-23T15:32:28.507Z,10.68
2019-03-23T15:34:57.056Z,12.18
2019-03-23T15:37:25.680Z,10.77
2019-03-23T15:39:54.293Z,9.75
2019-03-23T15:42:24.986Z,9.00
2019-03-23T15:44:53.132Z,7.70
2019-03-23T15:47:21.674Z,8.40
2019-03-23T15:49:50.520Z,8.93
2019-03-23T15:52:19.168Z,8.53
2019-03-23T15:54:47.721Z,9.37
2019-03-23T15:57:16.275Z,8.87
2019-03-23T15:59:44.928Z,10.63
2019-03-23T16:02:13.616Z,21.03
2019-03-23T16:04:42.165Z,26.40
2019-03-23T16:07:10.748Z,30.67
2019-03-23T16:09:39.306Z,33.90
2019-03-23T16:12:07.993Z,41.73
2019-03-23T16:14:36.493Z,46.60
2019-03-23T16:17:05.123Z,47.40
2019-03-23T16:19:33.725Z,46.20
2019-03-23T16:22:02.376Z,46.87
2019-03-23T16:24:30.926Z,47.67
2019-03-23T16:26:59.612Z,46.80
2019-03-23T16:29:28.182Z,46.40
2019-03-23T16:31:56.925Z,45.37
2019-03-23T16:34:25.543Z,45.00
2019-03-23T16:36:54.185Z,47.37
2019-03-23T16:39:22.801Z,47.07
2019-03-23T16:41:51.352Z,45.97
2019-03-23T16:44:19.929Z,51.93
2019-03-23T16:46:49.140Z,56.97
2019-03-23T16:49:17.766Z,58.50
2019-03-23T16:51:46.368Z,53.30
2019-03-23T16:54:14.914Z,50.37
2019-03-23T16:56:43.675Z,53.10
2019-03-23T16:59:12.323Z,55.83
2019-03-23T17:01:41.255Z,53.73
2019-03-23T17:04:09.806Z,55.07
2019-03-23T17:06:45.981Z,56.43
2019-03-23T17:09:08.581Z,56.97
2019-03-23T17:11:37.205Z,55.80
2019-03-23T17:14:05.759Z,60.00
2019-03-23T17:16:34.337Z,59.43
2019-03-23T17:19:02.894Z,58.87
2019-03-23T17:21:31.447Z,59.03
2019-03-23T17:24:02.454Z,60.20
2019-03-23T17:26:31.099Z,60.93
2019-03-23T17:28:59.645Z,59.83
2019-03-23T17:31:28.234Z,60.57
2019-03-23T17:33:56.718Z,61.33
2019-03-23T17:36:25.266Z,59.03
2019-03-23T17:38:53.921Z,60.00
2019-03-23T17:41:22.470Z,60.87
2019-03-23T17:43:51.068Z,60.80
2019-03-23T17:46:19.871Z,59.57
2019-03-23T17:48:48.518Z,57.33
2019-03-23T17:51:17.077Z,57.70
2019-03-23T17:53:45.653Z,57.03
2019-03-23T17:56:14.236Z,53.97
2019-03-23T17:58:42.781Z,46.77
2019-03-23T18:01:19.370Z,44.13
2019-03-23T18:03:44.238Z,45.30
2019-03-23T18:06:12.897Z,43.17
2019-03-23T18:08:41.570Z,40.90
2019-03-23T18:11:10.186Z,38.33
2019-03-23T18:13:38.887Z,38.93
2019-03-23T18:16:07.457Z,36.77
2019-03-23T18:18:35.997Z,36.63
2019-03-23T18:21:04.617Z,35.83
2019-03-23T18:23:33.265Z,34.50
2019-03-23T18:26:01.818Z,34.17
2019-03-23T18:28:30.435Z,33.70
2019-03-23T18:30:59.079Z,34.60
2019-03-23T18:33:27.690Z,36.83
2019-03-23T18:35:56.549Z,34.23
2019-03-23T18:38:25.119Z,35.77
2019-03-23T18:40:53.729Z,35.90
2019-03-23T18:43:27.418Z,37.53
2019-03-23T18:45:52.661Z,36.60
2019-03-23T18:48:21.198Z,38.13
2019-03-23T18:50:49.973Z,38.07
2019-03-23T18:53:18.675Z,37.97
2019-03-23T18:55:47.290Z,38.50
2019-03-23T18:58:15.821Z,35.77
2019-03-23T19:00:44.469Z,37.70
2019-03-23T19:03:13.157Z,37.00
2019-03-23T19:05:41.694Z,38.10
2019-03-23T19:08:11.939Z,39.17
2019-03-23T19:10:40.693Z,41.20
2019-03-23T19:13:09.197Z,40.07
2019-03-23T19:15:37.838Z,42.43
2019-03-23T19:18:07.399Z,38.73
2019-03-23T19:20:36.000Z,38.97
2019-03-23T19:23:04.842Z,38.13
2019-03-23T19:25:33.528Z,37.80
2019-03-23T19:28:03.358Z,36.40
2019-03-23T19:30:31.993Z,37.97
2019-03-23T19:33:00.600Z,35.67
2019-03-23T19:35:29.071Z,35.20
2019-03-23T19:37:57.651Z,35.87
2019-03-23T19:40:26.265Z,37.10
2019-03-23T19:42:54.951Z,40.33
2019-03-23T19:45:23.589Z,38.80
2019-03-23T19:47:52.129Z,38.83
2019-03-23T19:50:20.830Z,38.43
2019-03-23T19:52:49.477Z,40.33
2019-03-23T19:55:18.081Z,37.13
2019-03-23T19:57:48.505Z,38.50
2019-03-23T20:00:17.013Z,40.20
2019-03-23T20:02:45.558Z,40.23
2019-03-23T20:05:14.437Z,40.07
2019-03-23T20:07:42.937Z,41.27
2019-03-23T20:10:11.890Z,40.57
2019-03-23T20:12:40.365Z,40.67
2019-03-23T20:15:09.384Z,41.47
2019-03-23T20:17:38.094Z,41.70
2019-03-23T20:20:09.951Z,42.20
2019-03-23T20:22:38.590Z,40.97
2019-03-23T20:25:07.671Z,39.73
2019-03-23T20:27:36.290Z,38.50
2019-03-23T20:30:07.253Z,36.10
2019-03-23T20:32:35.871Z,33.43
2019-03-23T20:35:06.049Z,27.77
2019-03-23T20:37:34.600Z,24.47
2019-03-23T20:40:04.609Z,20.53
2019-03-23T20:42:33.226Z,20.23
2019-03-23T20:45:01.798Z,22.00
2019-03-23T20:47:30.437Z,21.60
2019-03-23T20:49:59.123Z,20.90
2019-03-23T20:52:27.778Z,21.47
2019-03-23T20:54:56.498Z,20.97
2019-03-23T20:57:24.974Z,18.90
2019-03-23T20:59:53.518Z,18.87
2019-03-23T21:02:22.365Z,19.10
2019-03-23T21:04:50.906Z,18.50
2019-03-23T21:07:19.522Z,18.23
2019-03-23T21:09:48.136Z,19.40
2019-03-23T21:12:16.713Z,19.13
2019-03-23T21:14:45.187Z,18.53
2019-03-23T21:17:13.874Z,18.60
2019-03-23T21:19:42.378Z,19.33
2019-03-23T21:22:10.991Z,20.10
2019-03-23T21:24:39.535Z,19.70
2019-03-23T21:27:08.139Z,18.70
2019-03-23T21:29:36.782Z,18.90
2019-03-23T21:32:05.539Z,18.47
2019-03-23T21:34:34.078Z,16.87
2019-03-23T21:37:02.593Z,16.23
2019-03-23T21:39:31.238Z,15.70
2019-03-23T21:41:59.889Z,17.37
2019-03-23T21:44:31.171Z,17.50
2019-03-23T21:46:58.646Z,16.97
2019-03-23T21:49:27.256Z,16.33
2019-03-23T21:51:55.998Z,17.17
2019-03-23T21:54:24.570Z,17.67
2019-03-23T21:56:53.114Z,17.67
2019-03-23T21:59:21.710Z,23.57
2019-03-23T22:01:50.259Z,20.77
2019-03-23T22:04:18.800Z,17.00
2019-03-23T22:06:47.449Z,16.27
2019-03-23T22:09:16.146Z,16.73
2019-03-23T22:11:44.769Z,16.97
2019-03-23T22:14:13.411Z,17.77
2019-03-23T22:16:41.954Z,16.67
2019-03-23T22:19:10.572Z,17.17
2019-03-23T22:21:39.074Z,16.97
2019-03-23T22:24:07.559Z,16.90
2019-03-23T22:26:36.102Z,17.10
2019-03-23T22:29:04.750Z,16.77
2019-03-23T22:31:33.303Z,18.27
2019-03-23T22:34:02.002Z,23.30
2019-03-23T22:36:30.582Z,23.50
2019-03-23T22:38:59.132Z,25.47
2019-03-23T22:41:27.691Z,32.17
2019-03-23T22:43:56.268Z,41.60
2019-03-23T22:46:24.809Z,35.47
2019-03-23T22:48:54.763Z,62.20
2019-03-23T22:51:23.229Z,65.67
2019-03-23T22:53:51.705Z,53.47
2019-03-23T22:56:20.281Z,54.60
2019-03-23T22:58:48.825Z,37.60
2019-03-23T23:01:17.705Z,38.13
2019-03-23T23:03:46.270Z,35.33
2019-03-23T23:06:14.964Z,42.97
2019-03-23T23:08:43.514Z,55.53
2019-03-23T23:11:12.202Z,60.67
2019-03-23T23:13:40.813Z,55.60
2019-03-23T23:16:09.328Z,51.70
2019-03-23T23:18:37.942Z,41.87
2019-03-23T23:21:06.617Z,35.50
2019-03-23T23:23:35.128Z,35.77
2019-03-23T23:26:03.811Z,41.67
2019-03-23T23:28:32.420Z,35.57
2019-03-23T23:31:00.924Z,25.70
2019-03-23T23:33:29.461Z,25.17
2019-03-23T23:35:58.009Z,21.57
2019-03-23T23:38:26.654Z,20.63
2019-03-23T23:40:55.197Z,23.07
2019-03-23T23:43:23.745Z,21.90
2019-03-23T23:45:52.289Z,20.23
2019-03-23T23:48:20.761Z,18.13
2019-03-23T23:50:49.330Z,19.37
2019-03-23T23:53:17.942Z,18.37
2019-03-23T23:55:46.482Z,20.07
2019-03-23T23:58:14.982Z,19.67
